Montrose

Airport
ICAO code: 
KMTJ
Summary
ICAO Region: 
NAM
Territory: 
Location: 
Montrose, Colorado,
Coordinates: 
Aerial View: 
38° 30' 29.552" N, 107° 53' 43.727" W
Airport RE: 
Hot and High Operations
Metar
Observation
KMTJ 040753Z AUTO 13006KT 10SM CLR M02/M06 A3022 RMK AO2 SLP215 T10221061
Station
Montrose, Montrose Regional Airport
Date/Time
2021-12-04 07:53:00
Wind direction
130°
Wind speed
06 kts
Lowest cloud amount
n/a
Temperature
-2.2°C
Dew point
-6.1°C
Humidity
74%
Weather condition
n/a

Description

Montrose Regional Airport is a non-towered public airport located at the northwest edge of Montrose, Colorado.

Climatology

Cold Semi-arid climate (Köppen climate classification BSk). - Hot, sometimes extremely hot summers and cold, sometimes very cold winters. Some snowfall during the winter. Areas featuring cold semi-arid climates are sometimes subject to major temperature swings during a 24 hour period.

Runways

Designator Length Width Surface Rops
13/31 2286 30 ASP Yes/Yes
17/35 3048 46 ASP Yes/Yes
Airport map: 
Aerial View: 

Accidents and Serious Incidents at or in the vicinity of KMTJ

SKYbrary Partners:

Safety knowledge contributed by: